Time;durP1;ratioP1;P1;durP2;ratioP2;P2;SDS_P1;SDS_P2;PMS_P1;PMS_P2;Temp;Humidity;BMP_temperature;BMP_pressure;BME280_temperature;BME280_humidity;BME280_pressure;Samples;Min_cycle;Max_cycle;Signal;HPM_P1;HPM_P2
2023/10/25 00:02:50;;;;;;;12.48;9.80;;;;;;;-145.68;100.00;63218.00;10480433;28;20223;-75
2023/10/25 00:07:50;;;;;;;8.93;7.55;;;;;;;-145.68;100.00;63218.00;10480732;28;20200;-75
2023/10/25 00:12:50;;;;;;;8.90;6.38;;;;;;;-145.68;100.00;63218.00;10480223;28;20187;-75
2023/10/25 00:17:51;;;;;;;9.07;7.43;;;;;;;-145.68;100.00;63218.00;10478595;28;20187;-75
2023/10/25 00:22:51;;;;;;;9.45;7.20;;;;;;;-145.68;100.00;63218.00;10490241;28;20211;-76
2023/10/25 00:27:52;;;;;;;12.48;9.25;;;;;;;-145.68;100.00;63218.00;10479853;28;20191;-75
2023/10/25 00:32:52;;;;;;;11.32;8.52;;;;;;;-145.68;100.00;63218.00;10475713;28;20598;-76
2023/10/25 00:37:52;;;;;;;12.60;8.32;;;;;;;-145.68;100.00;63218.00;10478340;28;20236;-75
2023/10/25 00:43:12;;;;;;;10.50;8.10;;;;;;;-145.68;100.00;63218.00;10478671;28;20222;-75
2023/10/25 00:48:12;;;;;;;11.77;8.48;;;;;;;-145.68;100.00;63218.00;10467915;28;20223;-75
2023/10/25 00:53:13;;;;;;;10.98;7.22;;;;;;;-145.68;100.00;73010.13;10477733;28;20188;-75
2023/10/25 00:58:13;;;;;;;9.38;7.22;;;;;;;-145.68;100.00;63218.00;10462925;28;20184;-75
2023/10/25 01:03:15;;;;;;;7.68;6.60;;;;;;;-145.68;100.00;63218.00;10463567;28;20207;-76
2023/10/25 01:08:18;;;;;;;9.07;6.72;;;;;;;-145.68;100.00;63218.00;10477964;28;20218;-75
2023/10/25 01:13:19;;;;;;;9.80;7.00;;;;;;;-145.68;100.00;63218.00;10482598;28;20274;-75
2023/10/25 01:18:20;;;;;;;10.50;7.13;;;;;;;-145.68;100.00;63218.00;10487481;28;21065;-75
2023/10/25 01:23:20;;;;;;;7.32;6.63;;;;;;;-145.68;100.00;63218.00;10466981;28;20242;-76
2023/10/25 01:28:20;;;;;;;9.25;7.32;;;;;;;-145.68;100.00;63218.00;10477942;28;20196;-75
2023/10/25 01:33:21;;;;;;;8.18;7.35;;;;;;;-145.68;100.00;63218.00;10476406;28;20191;-75
2023/10/25 01:38:22;;;;;;;7.68;6.82;;;;;;;-145.68;100.00;63218.00;10477632;28;20180;-75
2023/10/25 01:43:22;;;;;;;8.20;7.00;;;;;;;-145.68;100.00;63218.00;10458067;28;20579;-75
2023/10/25 01:48:22;;;;;;;9.43;8.45;;;;;;;-145.68;100.00;63218.00;10473613;28;20292;-75
2023/10/25 01:53:23;;;;;;;10.65;9.40;;;;;;;-145.68;100.00;63218.00;10471083;28;20175;-76
2023/10/25 01:58:23;;;;;;;13.65;8.70;;;;;;;-145.68;100.00;63218.00;10473839;28;20613;-75
2023/10/25 02:03:24;;;;;;;10.80;9.15;;;;;;;-145.68;100.00;63218.00;10474319;28;20203;-75
2023/10/25 02:08:24;;;;;;;13.05;10.70;;;;;;;-145.68;100.00;63218.00;10475377;28;20191;-76
2023/10/25 02:13:25;;;;;;;15.30;11.13;;;;;;;-145.68;100.00;63218.00;10475693;28;20532;-75
2023/10/25 02:18:26;;;;;;;16.15;12.20;;;;;;;-145.68;100.00;63218.00;10475264;28;20191;-75
2023/10/25 02:23:26;;;;;;;13.30;11.77;;;;;;;-145.68;100.00;63218.00;10474078;28;20237;-75
2023/10/25 02:28:27;;;;;;;13.55;11.80;;;;;;;-145.68;100.00;63218.00;10467402;28;20194;-74
2023/10/25 02:33:27;;;;;;;16.15;13.57;;;;;;;-145.68;100.00;63218.00;10469611;28;20229;-75
2023/10/25 02:38:28;;;;;;;15.93;14.23;;;;;;;-145.68;100.00;63218.00;10472711;28;20651;-75
2023/10/25 02:43:29;;;;;;;18.88;16.88;;;;;;;-145.68;100.00;63218.00;10475760;28;20249;-75
2023/10/25 02:48:30;;;;;;;22.35;15.98;;;;;;;-145.68;100.00;73044.09;10477107;28;20236;-75
2023/10/25 02:53:33;;;;;;;20.55;16.02;;;;;;;-145.68;100.00;73072.06;10468785;28;20180;-75
2023/10/25 02:58:34;;;;;;;20.98;16.85;;;;;;;-145.68;100.00;73090.06;10464050;28;20578;-75
2023/10/25 03:03:35;;;;;;;23.88;18.25;;;;;;;-145.68;100.00;73084.06;10472618;28;20191;-75
2023/10/25 03:08:35;;;;;;;20.95;18.13;;;;;;;-145.68;100.00;73088.06;10470556;28;20187;-75
2023/10/25 03:13:35;;;;;;;19.67;17.25;;;;;;;-145.68;100.00;73096.06;10469136;28;20598;-75
2023/10/25 03:18:36;;;;;;;23.13;20.70;;;;;;;-145.68;100.00;73092.06;10471198;28;20187;-76
2023/10/25 03:23:36;;;;;;;22.35;19.90;;;;;;;-145.68;100.00;73106.06;10479605;28;20299;-75
2023/10/25 03:28:37;;;;;;;22.63;20.23;;;;;;;-145.68;100.00;73108.06;10479314;28;20191;-76
2023/10/25 03:33:37;;;;;;;25.70;22.85;;;;;;;-145.68;100.00;73120.03;10473788;28;20604;-75
2023/10/25 03:38:38;;;;;;;25.65;22.38;;;;;;;-145.68;100.00;73124.03;10472924;28;21020;-75
2023/10/25 03:43:39;;;;;;;28.17;22.83;;;;;;;-145.68;100.00;73120.03;10477468;28;20183;-76
2023/10/25 03:48:39;;;;;;;28.20;23.45;;;;;;;-145.68;100.00;73128.03;10471997;28;20572;-75
2023/10/25 03:53:40;;;;;;;28.45;23.08;;;;;;;-145.68;100.00;73130.03;10474048;28;20202;-76
2023/10/25 03:58:40;;;;;;;24.35;21.17;;;;;;;-145.68;100.00;73126.03;10477783;28;20187;-75
2023/10/25 04:03:41;;;;;;;26.52;19.58;;;;;;;-145.68;100.00;73124.03;10475085;28;20198;-75
2023/10/25 04:08:41;;;;;;;21.20;18.17;;;;;;;-145.68;100.00;73122.03;10472891;28;20195;-75
2023/10/25 04:13:43;;;;;;;22.70;17.63;;;;;;;-145.68;100.00;73124.03;10476332;28;20207;-75
2023/10/25 04:18:44;;;;;;;23.35;19.10;;;;;;;-145.68;100.00;73122.03;10478569;28;20597;-76
2023/10/25 04:23:44;;;;;;;22.47;18.47;;;;;;;-145.68;100.00;73112.03;10476215;28;20301;-75
2023/10/25 04:28:44;;;;;;;21.87;18.70;;;;;;;-145.68;100.00;63218.00;10476562;28;20187;-75
2023/10/25 04:33:45;;;;;;;20.23;17.38;;;;;;;-145.68;100.00;63218.00;10472801;28;20195;-76
2023/10/25 04:38:46;;;;;;;25.30;18.27;;;;;;;-145.68;100.00;63218.00;10470925;28;20206;-75
2023/10/25 04:43:46;;;;;;;22.57;19.43;;;;;;;-145.68;100.00;63218.00;10460337;28;20196;-75
2023/10/25 04:48:46;;;;;;;20.80;17.33;;;;;;;-145.68;100.00;73108.06;10476837;28;20258;-75
2023/10/25 04:53:47;;;;;;;20.73;17.77;;;;;;;-145.68;100.00;73118.03;10477199;28;20277;-75
2023/10/25 04:58:47;;;;;;;25.02;19.42;;;;;;;-145.68;100.00;73110.06;10475304;28;20385;-76
2023/10/25 05:03:48;;;;;;;22.33;18.57;;;;;;;-145.68;100.00;63218.00;10471870;28;20569;-75
2023/10/25 05:08:48;;;;;;;19.63;17.47;;;;;;;-145.68;100.00;73094.06;10474779;28;20191;-75
2023/10/25 05:13:49;;;;;;;19.00;16.73;;;;;;;-145.68;100.00;73098.06;10475211;28;20670;-75
2023/10/25 05:18:49;;;;;;;19.20;17.13;;;;;;;-145.68;100.00;73106.06;10474788;28;20194;-75
2023/10/25 05:23:50;;;;;;;19.70;17.07;;;;;;;-145.68;100.00;73112.03;10473805;28;20258;-75
2023/10/25 05:28:51;;;;;;;20.33;18.10;;;;;;;-145.68;100.00;73110.06;10474552;28;20191;-74
2023/10/25 05:33:51;;;;;;;20.33;17.97;;;;;;;-145.68;100.00;73114.03;10476220;28;20175;-75
2023/10/25 05:38:52;;;;;;;22.60;18.53;;;;;;;-145.68;100.00;73116.03;10469175;28;20186;-75
2023/10/25 05:44:05;;;;;;;20.70;18.50;;;;;;;-145.68;100.00;73124.03;10461586;28;20322;-75
2023/10/25 05:49:05;;;;;;;22.67;19.37;;;;;;;-145.68;100.00;73140.03;10454104;28;20775;-75
2023/10/25 05:54:06;;;;;;;21.17;18.87;;;;;;;-145.68;100.00;73126.03;10466018;28;20833;-75
2023/10/25 05:59:07;;;;;;;19.73;17.13;;;;;;;-145.68;100.00;73140.03;10469599;28;20214;-75
2023/10/25 06:04:08;;;;;;;21.10;18.47;;;;;;;-145.68;100.00;73146.03;10469196;28;20215;-75
2023/10/25 06:09:10;;;;;;;22.90;19.07;;;;;;;-145.68;100.00;73132.03;10462479;28;20268;-75
2023/10/25 06:14:10;;;;;;;23.73;19.50;;;;;;;-145.68;100.00;73140.03;10469628;28;20192;-75
2023/10/25 06:19:11;;;;;;;19.60;17.50;;;;;;;-145.68;100.00;73144.03;10461394;28;20316;-75
2023/10/25 06:24:11;;;;;;;28.63;19.10;;;;;;;-145.68;100.00;73168.00;10465219;28;20236;-75
2023/10/25 06:29:12;;;;;;;23.73;18.93;;;;;;;-145.68;100.00;73156.00;10466456;28;20406;-75
2023/10/25 06:34:12;;;;;;;21.30;16.73;;;;;;;-145.68;100.00;63218.00;10458277;28;20223;-75
2023/10/25 06:39:13;;;;;;;22.03;17.97;;;;;;;-145.68;100.00;63218.00;10471555;28;20251;-74
2023/10/25 06:44:14;;;;;;;27.27;19.70;;;;;;;-145.68;100.00;73207.97;10468971;28;20652;-74
2023/10/25 06:49:15;;;;;;;24.27;19.20;;;;;;;-145.68;100.00;73190.00;10465904;28;20299;-75
2023/10/25 06:54:16;;;;;;;20.73;17.50;;;;;;;-145.68;100.00;73154.03;10479302;28;20919;-75
2023/10/25 06:59:17;;;;;;;22.83;17.63;;;;;;;-145.68;100.00;73160.00;10472612;28;20338;-74
2023/10/25 07:04:17;;;;;;;23.40;15.97;;;;;;;-145.68;100.00;73178.00;10476905;28;20282;-74
2023/10/25 07:09:18;;;;;;;25.27;16.37;;;;;;;-145.68;100.00;73178.00;10476535;28;20223;-74
2023/10/25 07:14:18;;;;;;;21.73;16.37;;;;;;;-145.68;100.00;73160.00;10455540;28;20192;-74
2023/10/25 07:19:19;;;;;;;21.63;15.87;;;;;;;-145.68;100.00;73134.03;10475513;28;20620;-75
2023/10/25 07:24:19;;;;;;;21.42;16.10;;;;;;;-145.68;100.00;73164.00;10467795;28;20223;-74
2023/10/25 07:29:19;;;;;;;19.13;15.27;;;;;;;-145.68;100.00;73170.00;10475076;28;20198;-74
2023/10/25 07:34:20;;;;;;;16.87;13.40;;;;;;;-145.68;100.00;73194.00;10465259;28;20212;-74
2023/10/25 07:45:44;;;;;;;13.50;11.80;;;;;;;-145.68;100.00;73174.00;10466289;28;20604;-74
2023/10/25 07:50:44;;;;;;;11.90;10.70;;;;;;;-145.68;100.00;73132.03;10468422;28;20203;-74
2023/10/25 07:55:45;;;;;;;12.70;9.60;;;;;;;-145.68;100.00;73022.13;10466904;28;20192;-74
2023/10/25 08:00:50;;;;;;;14.55;9.32;;;;;;;-145.68;100.00;72910.19;10467082;28;20817;-74
2023/10/25 08:05:50;;;;;;;9.57;7.60;;;;;;;-145.68;100.00;72908.19;10462655;28;20202;-75
2023/10/25 08:11:05;;;;;;;8.23;7.28;;;;;;;-145.68;100.00;72996.13;10477620;28;20188;-75
2023/10/25 08:16:06;;;;;;;10.30;9.02;;;;;;;-145.68;100.00;72992.13;10476511;28;20324;-74
2023/10/25 08:21:12;;;;;;;9.27;7.47;;;;;;;-145.68;100.00;72968.16;10475994;28;20215;-74
2023/10/25 08:26:13;;;;;;;9.30;8.30;;;;;;;-145.68;100.00;72964.16;10465944;28;20241;-75
2023/10/25 08:31:13;;;;;;;13.50;9.43;;;;;;;-145.68;100.00;73076.06;10484775;28;20248;-74
2023/10/25 08:36:14;;;;;;;10.73;9.00;;;;;;;-145.68;100.00;73012.13;10474289;28;20192;-74
2023/10/25 08:41:16;;;;;;;8.35;6.47;;;;;;;-145.68;94.50;72740.31;10477307;28;20212;-74
2023/10/25 08:46:18;;;;;;;5.25;4.85;;;;;;;-145.68;83.21;72822.25;10472375;28;20720;-74
2023/10/25 08:51:19;;;;;;;7.05;6.35;;;;;;;-145.68;86.31;72894.22;10472327;28;20578;-74
2023/10/25 08:56:19;;;;;;;4.43;4.07;;;;;;;-145.68;85.70;72978.16;10469442;28;20198;-74
2023/10/25 09:01:19;;;;;;;6.97;5.05;;;;;;;-145.68;83.22;72892.22;10463900;28;20211;-74
2023/10/25 09:06:24;;;;;;;4.43;3.97;;;;;;;-145.68;78.64;72748.31;10467638;28;20192;-75
2023/10/25 09:11:25;;;;;;;4.78;3.50;;;;;;;-145.68;71.61;72670.38;10459883;28;20219;-75
2023/10/25 09:16:26;;;;;;;5.13;3.40;;;;;;;-145.68;70.26;72644.41;10471704;28;20302;-75
2023/10/25 09:21:28;;;;;;;4.70;3.20;;;;;;;-145.68;68.08;72620.41;10469978;28;20393;-74
2023/10/25 09:26:36;;;;;;;3.40;3.10;;;;;;;-145.68;71.79;72776.28;10469919;28;20241;-75
2023/10/25 09:31:37;;;;;;;4.57;2.90;;;;;;;-145.68;66.74;72648.41;10469149;28;20241;-75
2023/10/25 09:36:38;;;;;;;3.15;2.65;;;;;;;-145.68;100.00;72648.41;10472143;28;20608;-75
2023/10/25 09:41:39;;;;;;;1.65;1.55;;;;;;;-145.68;67.31;72686.38;10470645;28;20211;-75
2023/10/25 09:46:42;;;;;;;2.88;2.15;;;;;;;-145.68;100.00;99160.25;10470185;28;20274;-74
2023/10/25 09:51:58;;;;;;;3.55;2.20;;;;;;;-145.68;64.94;72636.41;10473023;28;20210;-74
2023/10/25 09:56:59;;;;;;;1.70;1.60;;;;;;;-145.68;100.00;63218.00;10472239;28;20296;-75
2023/10/25 10:02:01;;;;;;;2.45;2.00;;;;;;;-145.68;65.02;72618.44;10482366;28;20624;-75
2023/10/25 10:07:06;;;;;;;1.80;1.58;;;;;;;-145.68;65.44;72616.44;10466257;28;20195;-75
2023/10/25 10:12:07;;;;;;;1.75;1.38;;;;;;;-145.68;61.62;72516.50;10469847;28;20191;-74
2023/10/25 10:17:16;;;;;;;2.00;1.75;;;;;;;-145.68;61.66;72464.56;10468049;28;20192;-75
2023/10/25 10:22:18;;;;;;;2.03;1.25;;;;;;;-145.68;60.77;72564.47;10464017;28;20231;-75
2023/10/25 10:27:20;;;;;;;3.38;1.55;;;;;;;-145.68;60.67;72414.59;10473812;28;20291;-75
2023/10/25 10:32:21;;;;;;;2.35;1.40;;;;;;;-145.68;59.41;72502.53;10467947;28;20211;-75
2023/10/25 10:37:28;;;;;;;1.98;1.17;;;;;;;-145.68;59.12;72380.63;10467014;28;20188;-75
2023/10/25 10:42:28;;;;;;;1.90;1.10;;;;;;;-145.68;57.14;72408.59;10473316;28;20208;-75
2023/10/25 10:47:47;;;;;;;2.30;1.30;;;;;;;-145.68;56.52;72472.53;10471480;28;20560;-75
2023/10/25 10:52:49;;;;;;;1.52;1.30;;;;;;;-145.68;54.60;72366.63;10470169;28;20580;-75
2023/10/25 10:57:50;;;;;;;1.20;1.10;;;;;;;-145.68;52.11;72240.75;10467320;28;20191;-74
2023/10/25 11:02:51;;;;;;;3.03;1.00;;;;;;;-145.68;49.55;72116.88;10469255;28;20207;-74
2023/10/25 11:08:36;;;;;;;1.67;1.05;;;;;;;-145.68;53.55;72552.47;10465972;28;20194;-75
2023/10/25 11:13:36;;;;;;;1.58;1.02;;;;;;;-145.68;53.34;72364.63;10467394;28;20774;-75
2023/10/25 11:18:37;;;;;;;4.15;1.00;;;;;;;-145.68;53.90;72406.59;10467766;28;20191;-75
2023/10/25 11:23:38;;;;;;;1.75;1.30;;;;;;;-145.68;51.41;72188.81;10467943;28;20230;-75
2023/10/25 11:28:38;;;;;;;2.08;0.90;;;;;;;-145.68;52.84;72396.63;10467399;28;20183;-75
2023/10/25 11:33:44;;;;;;;2.17;0.90;;;;;;;-145.68;51.49;72358.66;10469361;28;20201;-75
2023/10/25 11:38:44;;;;;;;3.25;1.23;;;;;;;-145.68;52.79;72434.59;10473995;28;20282;-75
2023/10/25 11:43:45;;;;;;;1.98;1.00;;;;;;;-145.68;53.19;72322.69;10467035;28;20219;-75
2023/10/25 11:48:47;;;;;;;3.08;0.80;;;;;;;-145.68;50.08;72272.72;10471916;28;20687;-74
2023/10/25 11:53:47;;;;;;;2.08;0.98;;;;;;;-145.68;51.38;72386.63;10479877;28;20647;-74
2023/10/25 11:58:48;;;;;;;2.78;0.60;;;;;;;-145.68;48.49;72172.81;10479921;28;20198;-75
2023/10/25 12:03:48;;;;;;;0.98;0.63;;;;;;;-145.68;48.97;72206.78;10469186;28;20272;-75
2023/10/25 12:08:48;;;;;;;0.65;0.63;;;;;;;-145.68;46.89;72030.94;10471597;28;20873;-75
2023/10/25 12:13:49;;;;;;;1.48;0.63;;;;;;;-145.68;42.58;71749.22;10474954;28;20179;-75
2023/10/25 12:18:49;;;;;;;0.80;0.70;;;;;;;-145.68;44.90;71993.00;10473885;28;20217;-75
2023/10/25 12:23:50;;;;;;;2.67;0.60;;;;;;;-145.68;43.11;71821.16;10475470;28;20656;-75
2023/10/25 12:28:50;;;;;;;0.95;0.57;;;;;;;-145.68;45.89;72160.81;10478813;28;20205;-75
2023/10/25 12:33:50;;;;;;;0.60;0.60;;;;;;;-145.68;44.07;71957.03;10478274;28;20194;-75
2023/10/25 12:38:51;;;;;;;0.63;0.60;;;;;;;-145.68;42.38;71789.19;10479671;28;20197;-75
2023/10/25 12:43:51;;;;;;;0.88;0.50;;;;;;;-145.68;43.87;72046.94;10480763;28;20219;-75
2023/10/25 12:48:52;;;;;;;1.98;0.77;;;;;;;-145.68;45.12;72060.94;10471257;28;20218;-75
2023/10/25 12:53:52;;;;;;;1.05;0.50;;;;;;;-145.68;44.88;72040.94;10470671;28;20203;-74
2023/10/25 12:58:52;;;;;;;0.45;0.45;;;;;;;-145.68;43.61;71989.00;10477645;28;20563;-75
2023/10/25 13:03:53;;;;;;;1.35;0.60;;;;;;;-145.68;44.92;72092.91;10474112;28;20222;-75
2023/10/25 13:08:53;;;;;;;1.13;0.60;;;;;;;-145.68;45.41;72028.94;10476153;28;20195;-75
2023/10/25 13:13:55;;;;;;;0.85;0.60;;;;;;;-145.68;45.60;72186.81;10473606;28;20191;-75
2023/10/25 13:18:57;;;;;;;1.30;0.60;;;;;;;-145.68;45.70;71911.06;10473293;28;20191;-75
2023/10/25 13:23:57;;;;;;;1.08;0.70;;;;;;;-145.68;44.39;71981.00;10462583;28;20944;-75
2023/10/25 13:28:59;;;;;;;0.70;0.70;;;;;;;-145.68;44.20;71937.03;10468273;28;20195;-75
2023/10/25 13:34:00;;;;;;;2.38;1.55;;;;;;;-145.68;45.60;72022.97;10468101;28;20220;-75
2023/10/25 13:39:00;;;;;;;1.13;0.80;;;;;;;-145.68;47.52;72056.94;10464183;28;20202;-75
2023/10/25 13:44:00;;;;;;;3.78;0.98;;;;;;;-145.68;49.46;72158.84;10468969;28;20727;-74
2023/10/25 13:49:01;;;;;;;1.38;1.00;;;;;;;-145.68;51.41;72228.75;10471878;28;20284;-75
2023/10/25 13:54:01;;;;;;;2.55;1.08;;;;;;;-145.68;52.06;72168.81;10472438;28;20194;-75
2023/10/25 13:59:02;;;;;;;2.38;1.08;;;;;;;-145.68;50.02;72146.84;10470471;28;20761;-75
2023/10/25 14:04:02;;;;;;;3.35;1.33;;;;;;;-145.68;48.69;72172.81;10466730;28;20199;-75
2023/10/25 14:09:04;;;;;;;3.72;1.27;;;;;;;-145.68;48.27;71977.00;10468370;28;20199;-75
2023/10/25 14:14:04;;;;;;;5.05;1.10;;;;;;;-145.68;45.80;71913.06;10456245;28;20217;-75
2023/10/25 14:19:06;;;;;;;3.72;1.30;;;;;;;-145.68;47.42;72110.88;10452544;28;20199;-74
2023/10/25 14:24:07;;;;;;;2.63;1.40;;;;;;;-145.68;50.38;72204.78;10453663;28;20231;-75
2023/10/25 14:29:08;;;;;;;1.38;1.20;;;;;;;-145.68;51.06;72268.72;10453238;28;20183;-75
2023/10/25 14:34:08;;;;;;;4.82;1.88;;;;;;;-145.68;50.03;72236.75;10452833;28;20199;-75
2023/10/25 14:39:12;;;;;;;2.90;1.20;;;;;;;-145.68;49.53;72234.75;10467077;28;20187;-75
2023/10/25 14:44:13;;;;;;;2.38;1.10;;;;;;;-145.68;50.44;72304.69;10463967;28;20215;-75
2023/10/25 14:49:13;;;;;;;3.60;1.20;;;;;;;-145.68;51.56;72302.69;10463018;28;20273;-75
2023/10/25 14:54:14;;;;;;;7.95;4.57;;;;;;;-145.68;53.92;72400.59;10479331;28;20192;-75
2023/10/25 14:59:14;;;;;;;4.78;3.10;;;;;;;-145.68;54.64;72332.66;10467150;28;20570;-75
2023/10/25 15:04:15;;;;;;;1.88;1.63;;;;;;;-145.68;57.68;72496.53;10469827;28;20258;-75
2023/10/25 15:09:15;;;;;;;2.90;1.73;;;;;;;-145.68;62.90;72612.44;10469020;28;20687;-75
2023/10/25 15:14:16;;;;;;;4.15;1.70;;;;;;;-145.68;64.44;72618.44;10473560;28;20192;-75
2023/10/25 15:19:16;;;;;;;6.70;1.98;;;;;;;-145.68;70.25;72702.34;10476363;28;20292;-75
2023/10/25 15:24:17;;;;;;;3.65;3.13;;;;;;;-145.68;74.95;72754.31;10476203;28;20253;-75
2023/10/25 15:29:17;;;;;;;3.83;2.00;;;;;;;-145.68;77.77;72728.34;10481668;28;20640;-74
2023/10/25 15:34:17;;;;;;;4.33;2.87;;;;;;;-145.68;82.30;72808.28;10477029;28;20203;-75
2023/10/25 15:39:18;;;;;;;4.67;2.20;;;;;;;-145.68;86.72;72772.31;10477995;28;20782;-75
2023/10/25 15:44:18;;;;;;;4.60;3.20;;;;;;;-145.68;88.23;72814.28;10476723;28;20682;-75
2023/10/25 15:49:18;;;;;;;5.07;3.53;;;;;;;-145.68;94.89;72822.25;10473879;28;20207;-75
2023/10/25 15:54:20;;;;;;;17.40;8.60;;;;;;;-145.68;95.72;72774.31;10475496;28;20187;-75
2023/10/25 15:59:20;;;;;;;22.40;11.77;;;;;;;-145.68;96.58;72772.31;10474892;28;20184;-75
2023/10/25 16:04:21;;;;;;;9.77;6.07;;;;;;;-145.68;99.51;72780.28;10480417;28;20184;-75
2023/10/25 16:09:21;;;;;;;5.07;4.13;;;;;;;-145.68;99.64;72776.28;10469827;28;20766;-75
2023/10/25 16:14:21;;;;;;;9.57;4.80;;;;;;;-145.68;100.00;72792.28;10475146;28;20188;-75
2023/10/25 16:19:23;;;;;;;9.93;5.30;;;;;;;-145.68;100.00;72844.25;10466483;28;20617;-75
2023/10/25 16:24:23;;;;;;;10.43;7.67;;;;;;;-145.68;100.00;72844.25;10474045;28;20236;-75
2023/10/25 16:29:23;;;;;;;12.47;6.60;;;;;;;-145.68;100.00;72818.25;10472413;28;20213;-75
2023/10/25 16:34:39;;;;;;;8.40;5.17;;;;;;;-145.68;100.00;72808.28;10474118;28;20204;-76
2023/10/25 16:40:14;;;;;;;9.53;5.83;;;;;;;-145.68;100.00;72780.28;10471862;28;20219;-76
2023/10/25 16:45:31;;;;;;;20.40;11.43;;;;;;;-145.68;100.00;72764.31;10484601;28;20191;-74
2023/10/25 16:50:35;;;;;;;18.13;10.80;;;;;;;-145.68;100.00;72734.31;10472698;28;20243;-75
2023/10/25 16:55:39;;;;;;;4.23;2.60;;;;;;;-145.68;99.21;72708.34;10471192;28;20614;-75
2023/10/25 17:00:40;;;;;;;5.73;3.40;;;;;;;-145.68;95.94;72676.38;10456310;28;20215;-75
2023/10/25 17:05:40;;;;;;;2.90;2.53;;;;;;;-145.68;95.91;72678.38;10460915;28;20218;-75
2023/10/25 17:10:40;;;;;;;4.37;2.80;;;;;;;-145.68;95.58;72680.38;10472685;28;20195;-75
2023/10/25 17:15:41;;;;;;;7.10;4.07;;;;;;;-145.68;95.90;72662.38;10472947;28;20556;-75
2023/10/25 17:20:44;;;;;;;10.30;3.00;;;;;;;-145.68;97.09;72656.41;10470890;28;20239;-75
2023/10/25 17:25:45;;;;;;;2.90;2.40;;;;;;;-145.68;96.97;72650.41;10469461;28;20678;-75
2023/10/25 17:30:47;;;;;;;4.10;3.03;;;;;;;-145.68;97.85;72654.41;10470299;28;20248;-75
2023/10/25 17:35:47;;;;;;;3.13;2.90;;;;;;;-145.68;98.72;72648.41;10471076;28;20204;-76
2023/10/25 17:40:48;;;;;;;2.30;2.10;;;;;;;-145.68;97.04;72618.44;10468003;28;20227;-76
2023/10/25 17:45:53;;;;;;;4.93;2.23;;;;;;;-145.68;95.63;72612.44;10466869;28;20197;-75
2023/10/25 17:50:54;;;;;;;4.47;2.10;;;;;;;-145.68;96.77;72608.44;10470850;28;20219;-75
2023/10/25 17:55:54;;;;;;;2.30;2.10;;;;;;;-145.68;93.75;72588.44;10463607;28;20203;-75
2023/10/25 18:00:55;;;;;;;2.40;2.20;;;;;;;-145.68;92.17;72584.44;10469850;28;20222;-75
2023/10/25 18:06:02;;;;;;;4.15;1.95;;;;;;;-145.68;90.53;72576.47;10469904;28;20651;-75
2023/10/25 18:11:02;;;;;;;2.53;1.80;;;;;;;-145.68;90.78;72568.47;10468440;28;20199;-75
2023/10/25 18:16:03;;;;;;;1.92;1.73;;;;;;;-145.68;90.36;72562.47;10459774;28;20260;-75
2023/10/25 18:21:03;;;;;;;2.38;1.88;;;;;;;-145.68;90.40;72566.47;10465649;28;20280;-75
2023/10/25 18:26:04;;;;;;;2.27;1.97;;;;;;;-145.68;90.08;72576.47;10468144;28;20278;-75
2023/10/25 18:31:04;;;;;;;6.67;2.97;;;;;;;-145.68;88.88;72568.47;10468774;28;20198;-75
2023/10/25 18:36:08;;;;;;;2.67;2.00;;;;;;;-145.68;87.89;72554.47;10468166;28;20187;-75
2023/10/25 18:41:08;;;;;;;4.25;1.48;;;;;;;-145.68;85.51;72532.50;10471206;28;21019;-75
2023/10/25 18:46:09;;;;;;;3.03;1.65;;;;;;;-145.68;84.73;72532.50;10466408;28;20222;-75
2023/10/25 18:51:10;;;;;;;1.77;1.50;;;;;;;-145.68;84.26;72524.50;10467859;28;20568;-75
2023/10/25 18:56:10;;;;;;;3.95;1.40;;;;;;;-145.68;83.30;72528.50;10467713;28;20199;-74
2023/10/25 19:01:16;;;;;;;3.00;1.90;;;;;;;-145.68;82.32;72502.53;10460226;28;20219;-75
2023/10/25 19:06:16;;;;;;;6.47;4.47;;;;;;;-145.68;83.32;72504.53;10463377;28;20287;-75
2023/10/25 19:11:17;;;;;;;2.25;1.77;;;;;;;-145.68;80.66;72484.53;10454028;28;20594;-74
2023/10/25 19:16:17;;;;;;;2.80;1.80;;;;;;;-145.68;77.83;72466.56;10464044;28;20601;-75
2023/10/25 19:21:17;;;;;;;2.03;1.73;;;;;;;-145.68;77.17;72464.56;10467284;28;20696;-75
2023/10/25 19:26:18;;;;;;;1.85;1.33;;;;;;;-145.68;74.73;72434.59;10471191;28;20199;-75
2023/10/25 19:31:19;;;;;;;2.53;1.38;;;;;;;-145.68;74.08;72428.59;10474876;28;20570;-74
2023/10/25 19:36:19;;;;;;;3.70;1.50;;;;;;;-145.68;73.38;72428.59;10466562;28;20286;-75
2023/10/25 19:41:20;;;;;;;2.05;1.27;;;;;;;-145.68;74.03;72442.56;10465297;28;20302;-75
2023/10/25 19:46:20;;;;;;;2.85;1.50;;;;;;;-145.68;73.65;72442.56;10465575;28;20200;-75
2023/10/25 19:51:20;;;;;;;3.53;1.65;;;;;;;-145.68;74.49;72428.59;10466174;28;20208;-75
2023/10/25 19:56:21;;;;;;;1.55;1.45;;;;;;;-145.68;74.74;72420.59;10466377;28;20211;-75
2023/10/25 20:01:21;;;;;;;4.63;1.58;;;;;;;-145.68;75.16;72420.59;10468274;28;20223;-74
2023/10/25 20:06:21;;;;;;;3.05;1.40;;;;;;;-145.68;75.71;72418.59;10473777;28;20213;-75
2023/10/25 20:11:23;;;;;;;5.43;1.60;;;;;;;-145.68;75.51;72404.59;10473546;28;20644;-74
2023/10/25 20:16:23;;;;;;;3.97;1.83;;;;;;;-145.68;75.50;72398.63;10471759;28;20200;-74
2023/10/25 20:21:24;;;;;;;1.90;1.50;;;;;;;-145.68;74.86;72384.63;10472942;28;20677;-75
2023/10/25 20:26:24;;;;;;;1.70;1.50;;;;;;;-145.68;74.18;72384.63;10472754;28;20194;-74
2023/10/25 20:31:24;;;;;;;1.90;1.73;;;;;;;-145.68;74.24;72374.63;10473435;28;20249;-74
2023/10/25 20:36:25;;;;;;;1.75;1.17;;;;;;;-145.68;74.36;72368.63;10472613;28;20188;-75
2023/10/25 20:41:26;;;;;;;1.38;1.20;;;;;;;-145.68;74.52;72374.63;10473347;28;20576;-75
2023/10/25 20:46:26;;;;;;;1.50;1.40;;;;;;;-145.68;74.24;72360.66;10472363;28;20206;-74
2023/10/25 20:51:27;;;;;;;2.88;1.48;;;;;;;-145.68;74.41;72362.66;10472308;28;20771;-74
2023/10/25 20:56:28;;;;;;;2.30;1.75;;;;;;;-145.68;74.71;72348.66;10472148;28;20195;-75
2023/10/25 21:01:28;;;;;;;3.53;1.85;;;;;;;-145.68;76.90;72360.66;10470626;28;20212;-75
2023/10/25 21:06:29;;;;;;;2.10;1.87;;;;;;;-145.68;79.61;72372.63;10470939;28;20191;-75
2023/10/25 21:11:29;;;;;;;4.23;2.60;;;;;;;-145.68;84.50;72422.59;10470644;28;20188;-75
2023/10/25 21:16:30;;;;;;;3.43;2.87;;;;;;;-145.68;92.00;72452.56;10473139;28;20271;-76
2023/10/25 21:21:30;;;;;;;5.07;3.30;;;;;;;-145.68;99.36;72476.53;10472623;28;20228;-76
2023/10/25 21:26:30;;;;;;;5.17;3.20;;;;;;;-145.68;100.00;72464.56;10472101;28;20203;-75
2023/10/25 21:31:31;;;;;;;5.47;3.13;;;;;;;-145.68;100.00;72456.56;10473096;28;20195;-76
2023/10/25 21:36:31;;;;;;;5.60;3.00;;;;;;;-145.68;100.00;72462.56;10471994;28;20202;-76
2023/10/25 21:41:32;;;;;;;3.87;2.80;;;;;;;-145.68;100.00;72462.56;10473130;28;20219;-76
2023/10/25 21:46:32;;;;;;;7.27;4.50;;;;;;;-145.68;100.00;72460.56;10473372;28;20191;-75
2023/10/25 21:51:33;;;;;;;4.80;3.63;;;;;;;-145.68;100.00;72454.56;10471508;28;20203;-76
2023/10/25 21:56:33;;;;;;;5.50;3.73;;;;;;;-145.68;100.00;72442.56;10471366;28;20200;-77
2023/10/25 22:01:34;;;;;;;3.90;3.07;;;;;;;-145.68;100.00;72424.59;10471847;28;20212;-76
2023/10/25 22:06:35;;;;;;;4.27;2.50;;;;;;;-145.68;100.00;72418.59;10471816;28;20195;-76
2023/10/25 22:11:35;;;;;;;3.87;3.13;;;;;;;-145.68;100.00;72412.59;10471798;28;20237;-77
2023/10/25 22:16:37;;;;;;;3.87;3.07;;;;;;;-145.68;100.00;72406.59;10471111;28;20191;-76
2023/10/25 22:21:37;;;;;;;4.33;3.10;;;;;;;-145.68;100.00;72388.63;10471520;28;20237;-76
2023/10/25 22:26:38;;;;;;;5.80;3.73;;;;;;;-145.68;100.00;72386.63;10470794;28;20549;-76
2023/10/25 22:31:39;;;;;;;5.30;3.43;;;;;;;-145.68;100.00;72368.63;10470182;28;20724;-76
2023/10/25 22:36:47;;;;;;;7.87;4.00;;;;;;;-145.68;100.00;72364.63;10471156;28;20191;-76
2023/10/25 22:41:50;;;;;;;4.50;3.80;;;;;;;-145.68;100.00;72368.63;10469053;28;20223;-76